sensor_id;sensor_type;location;lat;lon;timestamp;P1;durP1;ratioP1;P2;durP2;ratioP2
13933;SDS011;7039;52.168;9.866;2023-09-18T00:01:27;7.77;;;5.83;;
13933;SDS011;7039;52.168;9.866;2023-09-18T00:03:53;8.97;;;5.63;;
13933;SDS011;7039;52.168;9.866;2023-09-18T00:06:20;6.67;;;5.90;;
13933;SDS011;7039;52.168;9.866;2023-09-18T00:08:48;10.67;;;5.70;;
13933;SDS011;7039;52.168;9.866;2023-09-18T00:11:16;6.47;;;5.30;;
13933;SDS011;7039;52.168;9.866;2023-09-18T00:13:44;6.30;;;5.33;;
13933;SDS011;7039;52.168;9.866;2023-09-18T00:16:10;11.00;;;6.13;;
13933;SDS011;7039;52.168;9.866;2023-09-18T00:18:38;8.10;;;5.80;;
13933;SDS011;7039;52.168;9.866;2023-09-18T00:21:04;10.47;;;6.40;;
13933;SDS011;7039;52.168;9.866;2023-09-18T00:23:31;8.83;;;6.90;;
13933;SDS011;7039;52.168;9.866;2023-09-18T00:26:00;8.77;;;6.20;;
13933;SDS011;7039;52.168;9.866;2023-09-18T00:28:27;9.80;;;5.87;;
13933;SDS011;7039;52.168;9.866;2023-09-18T00:30:54;8.43;;;6.07;;
13933;SDS011;7039;52.168;9.866;2023-09-18T00:33:21;8.63;;;6.30;;
13933;SDS011;7039;52.168;9.866;2023-09-18T00:35:47;14.37;;;6.20;;
13933;SDS011;7039;52.168;9.866;2023-09-18T00:38:14;10.33;;;6.07;;
13933;SDS011;7039;52.168;9.866;2023-09-18T00:40:41;6.87;;;5.93;;
13933;SDS011;7039;52.168;9.866;2023-09-18T00:43:08;7.00;;;5.77;;
13933;SDS011;7039;52.168;9.866;2023-09-18T00:45:36;6.73;;;5.77;;
13933;SDS011;7039;52.168;9.866;2023-09-18T00:48:07;9.20;;;6.17;;
13933;SDS011;7039;52.168;9.866;2023-09-18T00:50:34;10.33;;;6.23;;
13933;SDS011;7039;52.168;9.866;2023-09-18T00:53:01;9.07;;;5.80;;
13933;SDS011;7039;52.168;9.866;2023-09-18T00:55:28;8.57;;;6.20;;
13933;SDS011;7039;52.168;9.866;2023-09-18T00:57:57;7.87;;;5.90;;
13933;SDS011;7039;52.168;9.866;2023-09-18T01:00:24;6.27;;;5.63;;
13933;SDS011;7039;52.168;9.866;2023-09-18T01:02:51;11.50;;;5.97;;
13933;SDS011;7039;52.168;9.866;2023-09-18T01:05:19;10.13;;;5.90;;
13933;SDS011;7039;52.168;9.866;2023-09-18T01:07:45;8.67;;;5.37;;
13933;SDS011;7039;52.168;9.866;2023-09-18T01:10:12;7.13;;;5.80;;
13933;SDS011;7039;52.168;9.866;2023-09-18T01:12:42;7.33;;;5.73;;
13933;SDS011;7039;52.168;9.866;2023-09-18T01:15:14;7.43;;;5.50;;
13933;SDS011;7039;52.168;9.866;2023-09-18T01:17:44;9.90;;;5.63;;
13933;SDS011;7039;52.168;9.866;2023-09-18T01:20:12;10.27;;;5.97;;
13933;SDS011;7039;52.168;9.866;2023-09-18T01:22:40;7.20;;;6.10;;
13933;SDS011;7039;52.168;9.866;2023-09-18T01:25:06;8.20;;;5.60;;
13933;SDS011;7039;52.168;9.866;2023-09-18T01:27:33;11.63;;;5.40;;
13933;SDS011;7039;52.168;9.866;2023-09-18T01:30:00;7.93;;;5.50;;
13933;SDS011;7039;52.168;9.866;2023-09-18T01:32:27;10.60;;;5.73;;
13933;SDS011;7039;52.168;9.866;2023-09-18T01:34:57;14.53;;;6.00;;
13933;SDS011;7039;52.168;9.866;2023-09-18T01:37:26;6.10;;;5.50;;
13933;SDS011;7039;52.168;9.866;2023-09-18T01:39:56;6.83;;;5.40;;
13933;SDS011;7039;52.168;9.866;2023-09-18T01:42:24;6.27;;;5.33;;
13933;SDS011;7039;52.168;9.866;2023-09-18T01:44:51;8.63;;;6.30;;
13933;SDS011;7039;52.168;9.866;2023-09-18T01:47:18;6.80;;;5.40;;
13933;SDS011;7039;52.168;9.866;2023-09-18T01:49:48;6.50;;;5.50;;
13933;SDS011;7039;52.168;9.866;2023-09-18T01:52:15;10.53;;;5.93;;
13933;SDS011;7039;52.168;9.866;2023-09-18T01:54:41;8.13;;;5.20;;
13933;SDS011;7039;52.168;9.866;2023-09-18T01:57:09;8.80;;;6.17;;
13933;SDS011;7039;52.168;9.866;2023-09-18T01:59:37;9.20;;;6.10;;
13933;SDS011;7039;52.168;9.866;2023-09-18T02:02:04;7.17;;;5.63;;
13933;SDS011;7039;52.168;9.866;2023-09-18T02:04:32;7.73;;;5.70;;
13933;SDS011;7039;52.168;9.866;2023-09-18T02:06:59;7.83;;;5.60;;
13933;SDS011;7039;52.168;9.866;2023-09-18T02:09:25;9.03;;;5.57;;
13933;SDS011;7039;52.168;9.866;2023-09-18T02:11:52;9.00;;;6.13;;
13933;SDS011;7039;52.168;9.866;2023-09-18T02:14:20;10.83;;;6.60;;
13933;SDS011;7039;52.168;9.866;2023-09-18T02:16:46;7.67;;;5.87;;
13933;SDS011;7039;52.168;9.866;2023-09-18T02:19:14;7.43;;;5.93;;
13933;SDS011;7039;52.168;9.866;2023-09-18T02:21:42;9.33;;;6.43;;
13933;SDS011;7039;52.168;9.866;2023-09-18T02:24:08;8.30;;;5.60;;
13933;SDS011;7039;52.168;9.866;2023-09-18T02:26:35;6.87;;;6.03;;
13933;SDS011;7039;52.168;9.866;2023-09-18T02:29:06;6.30;;;5.70;;
13933;SDS011;7039;52.168;9.866;2023-09-18T02:31:36;8.20;;;5.70;;
13933;SDS011;7039;52.168;9.866;2023-09-18T02:34:03;7.03;;;5.70;;
13933;SDS011;7039;52.168;9.866;2023-09-18T02:36:29;8.53;;;5.97;;
13933;SDS011;7039;52.168;9.866;2023-09-18T02:38:56;6.73;;;5.60;;
13933;SDS011;7039;52.168;9.866;2023-09-18T02:41:22;8.27;;;5.63;;
13933;SDS011;7039;52.168;9.866;2023-09-18T02:43:49;9.27;;;6.33;;
13933;SDS011;7039;52.168;9.866;2023-09-18T02:46:15;6.70;;;5.50;;
13933;SDS011;7039;52.168;9.866;2023-09-18T02:48:43;6.37;;;5.63;;
13933;SDS011;7039;52.168;9.866;2023-09-18T02:51:09;7.47;;;6.10;;
13933;SDS011;7039;52.168;9.866;2023-09-18T02:53:36;10.63;;;6.53;;
13933;SDS011;7039;52.168;9.866;2023-09-18T02:56:03;6.23;;;5.63;;
13933;SDS011;7039;52.168;9.866;2023-09-18T02:58:29;12.27;;;6.17;;
13933;SDS011;7039;52.168;9.866;2023-09-18T03:00:56;9.53;;;5.93;;
13933;SDS011;7039;52.168;9.866;2023-09-18T03:03:24;9.10;;;5.93;;
13933;SDS011;7039;52.168;9.866;2023-09-18T03:05:53;7.30;;;5.60;;
13933;SDS011;7039;52.168;9.866;2023-09-18T03:08:26;8.37;;;5.97;;
13933;SDS011;7039;52.168;9.866;2023-09-18T03:10:52;9.03;;;5.50;;
13933;SDS011;7039;52.168;9.866;2023-09-18T03:13:18;10.20;;;6.17;;
13933;SDS011;7039;52.168;9.866;2023-09-18T03:15:45;9.23;;;6.10;;
13933;SDS011;7039;52.168;9.866;2023-09-18T03:18:13;7.60;;;5.93;;
13933;SDS011;7039;52.168;9.866;2023-09-18T03:20:40;7.13;;;5.10;;
13933;SDS011;7039;52.168;9.866;2023-09-18T03:23:08;8.73;;;5.90;;
13933;SDS011;7039;52.168;9.866;2023-09-18T03:25:35;7.33;;;5.57;;
13933;SDS011;7039;52.168;9.866;2023-09-18T03:28:02;11.13;;;6.27;;
13933;SDS011;7039;52.168;9.866;2023-09-18T03:30:29;9.20;;;6.30;;
13933;SDS011;7039;52.168;9.866;2023-09-18T03:32:55;8.37;;;5.90;;
13933;SDS011;7039;52.168;9.866;2023-09-18T03:35:22;8.03;;;5.60;;
13933;SDS011;7039;52.168;9.866;2023-09-18T03:37:49;8.70;;;5.23;;
13933;SDS011;7039;52.168;9.866;2023-09-18T03:40:19;7.13;;;5.40;;
13933;SDS011;7039;52.168;9.866;2023-09-18T03:42:45;7.27;;;5.33;;
13933;SDS011;7039;52.168;9.866;2023-09-18T03:45:12;8.20;;;5.93;;
13933;SDS011;7039;52.168;9.866;2023-09-18T03:47:40;7.27;;;5.63;;
13933;SDS011;7039;52.168;9.866;2023-09-18T03:50:07;8.60;;;5.20;;
13933;SDS011;7039;52.168;9.866;2023-09-18T03:52:34;8.27;;;5.97;;
13933;SDS011;7039;52.168;9.866;2023-09-18T03:55:01;9.63;;;6.33;;
13933;SDS011;7039;52.168;9.866;2023-09-18T03:57:29;10.53;;;6.67;;
13933;SDS011;7039;52.168;9.866;2023-09-18T03:59:56;8.50;;;5.83;;
13933;SDS011;7039;52.168;9.866;2023-09-18T04:02:24;7.53;;;6.30;;
13933;SDS011;7039;52.168;9.866;2023-09-18T04:04:51;10.60;;;6.20;;
13933;SDS011;7039;52.168;9.866;2023-09-18T04:07:19;10.10;;;6.87;;
13933;SDS011;7039;52.168;9.866;2023-09-18T04:09:45;9.30;;;5.90;;
13933;SDS011;7039;52.168;9.866;2023-09-18T04:12:12;8.87;;;6.57;;
13933;SDS011;7039;52.168;9.866;2023-09-18T04:14:40;7.97;;;6.47;;
13933;SDS011;7039;52.168;9.866;2023-09-18T04:17:07;13.23;;;6.70;;
13933;SDS011;7039;52.168;9.866;2023-09-18T04:19:33;7.80;;;5.87;;
13933;SDS011;7039;52.168;9.866;2023-09-18T04:22:00;10.03;;;7.03;;
13933;SDS011;7039;52.168;9.866;2023-09-18T04:24:27;10.23;;;6.17;;
13933;SDS011;7039;52.168;9.866;2023-09-18T04:26:53;10.57;;;6.30;;
13933;SDS011;7039;52.168;9.866;2023-09-18T04:29:20;7.43;;;6.30;;
13933;SDS011;7039;52.168;9.866;2023-09-18T04:31:47;7.07;;;5.47;;
13933;SDS011;7039;52.168;9.866;2023-09-18T04:34:14;6.77;;;6.07;;
13933;SDS011;7039;52.168;9.866;2023-09-18T04:36:40;6.93;;;6.27;;
13933;SDS011;7039;52.168;9.866;2023-09-18T04:39:08;9.30;;;6.33;;
13933;SDS011;7039;52.168;9.866;2023-09-18T04:41:35;6.53;;;5.83;;
13933;SDS011;7039;52.168;9.866;2023-09-18T04:44:01;7.17;;;6.10;;
13933;SDS011;7039;52.168;9.866;2023-09-18T04:46:30;8.03;;;6.47;;
13933;SDS011;7039;52.168;9.866;2023-09-18T04:48:57;7.60;;;5.20;;
13933;SDS011;7039;52.168;9.866;2023-09-18T04:51:24;7.47;;;5.87;;
13933;SDS011;7039;52.168;9.866;2023-09-18T04:53:51;6.37;;;5.73;;
13933;SDS011;7039;52.168;9.866;2023-09-18T04:56:19;8.77;;;5.77;;
13933;SDS011;7039;52.168;9.866;2023-09-18T04:58:46;8.03;;;6.00;;
13933;SDS011;7039;52.168;9.866;2023-09-18T05:01:12;6.77;;;5.67;;
13933;SDS011;7039;52.168;9.866;2023-09-18T05:03:39;6.47;;;5.73;;
13933;SDS011;7039;52.168;9.866;2023-09-18T05:06:07;6.40;;;5.80;;
13933;SDS011;7039;52.168;9.866;2023-09-18T05:08:33;9.40;;;7.10;;
13933;SDS011;7039;52.168;9.866;2023-09-18T05:11:00;6.53;;;5.93;;
13933;SDS011;7039;52.168;9.866;2023-09-18T05:13:26;6.30;;;5.70;;
13933;SDS011;7039;52.168;9.866;2023-09-18T05:15:53;9.67;;;5.93;;
13933;SDS011;7039;52.168;9.866;2023-09-18T05:18:19;6.10;;;5.23;;
13933;SDS011;7039;52.168;9.866;2023-09-18T05:20:46;6.17;;;5.47;;
13933;SDS011;7039;52.168;9.866;2023-09-18T05:23:14;7.37;;;5.97;;
13933;SDS011;7039;52.168;9.866;2023-09-18T05:25:41;5.93;;;5.33;;
13933;SDS011;7039;52.168;9.866;2023-09-18T05:28:09;5.63;;;5.13;;
13933;SDS011;7039;52.168;9.866;2023-09-18T05:30:36;5.93;;;5.33;;
13933;SDS011;7039;52.168;9.866;2023-09-18T05:33:04;8.37;;;4.97;;
13933;SDS011;7039;52.168;9.866;2023-09-18T05:35:31;7.50;;;5.53;;
13933;SDS011;7039;52.168;9.866;2023-09-18T05:37:58;6.00;;;5.40;;
13933;SDS011;7039;52.168;9.866;2023-09-18T05:40:26;9.10;;;5.17;;
13933;SDS011;7039;52.168;9.866;2023-09-18T05:42:53;8.70;;;5.43;;
13933;SDS011;7039;52.168;9.866;2023-09-18T05:45:20;5.50;;;5.00;;
13933;SDS011;7039;52.168;9.866;2023-09-18T05:47:47;7.13;;;5.60;;
13933;SDS011;7039;52.168;9.866;2023-09-18T05:50:13;6.27;;;4.90;;
13933;SDS011;7039;52.168;9.866;2023-09-18T05:52:41;7.10;;;5.70;;
13933;SDS011;7039;52.168;9.866;2023-09-18T05:55:08;5.53;;;5.03;;
13933;SDS011;7039;52.168;9.866;2023-09-18T05:57:37;7.13;;;5.70;;
13933;SDS011;7039;52.168;9.866;2023-09-18T06:00:03;6.97;;;5.37;;
13933;SDS011;7039;52.168;9.866;2023-09-18T06:02:31;9.30;;;5.60;;
13933;SDS011;7039;52.168;9.866;2023-09-18T06:04:58;5.67;;;5.17;;
13933;SDS011;7039;52.168;9.866;2023-09-18T06:07:26;5.83;;;5.23;;
13933;SDS011;7039;52.168;9.866;2023-09-18T06:09:52;5.17;;;4.67;;
13933;SDS011;7039;52.168;9.866;2023-09-18T06:12:19;6.27;;;5.00;;
13933;SDS011;7039;52.168;9.866;2023-09-18T06:14:48;6.90;;;5.63;;
13933;SDS011;7039;52.168;9.866;2023-09-18T06:17:14;7.60;;;5.53;;
13933;SDS011;7039;52.168;9.866;2023-09-18T06:19:41;6.20;;;5.60;;
13933;SDS011;7039;52.168;9.866;2023-09-18T06:22:08;6.17;;;5.23;;
13933;SDS011;7039;52.168;9.866;2023-09-18T06:24:35;9.13;;;5.70;;
13933;SDS011;7039;52.168;9.866;2023-09-18T06:27:02;5.70;;;5.10;;
13933;SDS011;7039;52.168;9.866;2023-09-18T06:29:29;5.53;;;5.07;;
13933;SDS011;7039;52.168;9.866;2023-09-18T06:31:57;5.77;;;4.93;;
13933;SDS011;7039;52.168;9.866;2023-09-18T06:34:23;5.90;;;5.30;;
13933;SDS011;7039;52.168;9.866;2023-09-18T06:36:49;6.30;;;5.40;;
13933;SDS011;7039;52.168;9.866;2023-09-18T06:39:16;5.90;;;5.20;;
13933;SDS011;7039;52.168;9.866;2023-09-18T06:41:42;6.70;;;5.30;;
13933;SDS011;7039;52.168;9.866;2023-09-18T06:44:09;7.40;;;5.77;;
13933;SDS011;7039;52.168;9.866;2023-09-18T06:46:35;5.80;;;5.10;;
13933;SDS011;7039;52.168;9.866;2023-09-18T06:49:03;7.63;;;5.17;;
13933;SDS011;7039;52.168;9.866;2023-09-18T06:51:30;5.90;;;5.30;;
13933;SDS011;7039;52.168;9.866;2023-09-18T06:53:56;6.43;;;5.00;;
13933;SDS011;7039;52.168;9.866;2023-09-18T06:56:23;5.73;;;4.77;;
13933;SDS011;7039;52.168;9.866;2023-09-18T06:58:50;7.47;;;4.30;;
13933;SDS011;7039;52.168;9.866;2023-09-18T07:01:17;7.97;;;5.03;;
13933;SDS011;7039;52.168;9.866;2023-09-18T07:03:44;6.43;;;5.03;;
13933;SDS011;7039;52.168;9.866;2023-09-18T07:06:13;9.13;;;5.40;;
13933;SDS011;7039;52.168;9.866;2023-09-18T07:08:43;6.77;;;4.80;;
13933;SDS011;7039;52.168;9.866;2023-09-18T07:11:10;8.73;;;4.73;;
13933;SDS011;7039;52.168;9.866;2023-09-18T07:13:37;7.53;;;4.47;;
13933;SDS011;7039;52.168;9.866;2023-09-18T07:16:04;11.00;;;5.30;;
13933;SDS011;7039;52.168;9.866;2023-09-18T07:18:31;8.30;;;5.37;;
13933;SDS011;7039;52.168;9.866;2023-09-18T07:20:58;9.97;;;5.20;;
13933;SDS011;7039;52.168;9.866;2023-09-18T07:23:26;6.00;;;4.87;;
13933;SDS011;7039;52.168;9.866;2023-09-18T07:25:52;5.30;;;4.47;;
13933;SDS011;7039;52.168;9.866;2023-09-18T07:28:19;6.77;;;4.70;;
13933;SDS011;7039;52.168;9.866;2023-09-18T07:30:45;6.50;;;4.50;;
13933;SDS011;7039;52.168;9.866;2023-09-18T07:33:13;11.60;;;4.57;;
13933;SDS011;7039;52.168;9.866;2023-09-18T07:35:42;8.27;;;4.53;;
13933;SDS011;7039;52.168;9.866;2023-09-18T07:38:12;8.57;;;4.53;;
13933;SDS011;7039;52.168;9.866;2023-09-18T07:40:42;5.17;;;4.43;;
13933;SDS011;7039;52.168;9.866;2023-09-18T07:43:10;4.63;;;4.10;;
13933;SDS011;7039;52.168;9.866;2023-09-18T07:45:38;6.27;;;5.17;;
13933;SDS011;7039;52.168;9.866;2023-09-18T07:48:05;7.27;;;4.63;;
13933;SDS011;7039;52.168;9.866;2023-09-18T07:50:32;8.40;;;4.70;;
13933;SDS011;7039;52.168;9.866;2023-09-18T07:52:59;7.13;;;4.97;;
13933;SDS011;7039;52.168;9.866;2023-09-18T07:55:25;6.47;;;4.70;;
13933;SDS011;7039;52.168;9.866;2023-09-18T07:57:53;8.20;;;4.57;;
13933;SDS011;7039;52.168;9.866;2023-09-18T08:00:19;9.23;;;4.93;;
13933;SDS011;7039;52.168;9.866;2023-09-18T08:02:47;9.87;;;4.63;;
13933;SDS011;7039;52.168;9.866;2023-09-18T08:05:15;8.77;;;4.57;;
13933;SDS011;7039;52.168;9.866;2023-09-18T08:07:41;11.37;;;4.10;;
13933;SDS011;7039;52.168;9.866;2023-09-18T08:10:08;9.63;;;4.93;;
13933;SDS011;7039;52.168;9.866;2023-09-18T08:12:35;7.27;;;4.10;;
13933;SDS011;7039;52.168;9.866;2023-09-18T08:15:03;12.60;;;4.90;;
13933;SDS011;7039;52.168;9.866;2023-09-18T08:17:31;8.47;;;4.03;;
13933;SDS011;7039;52.168;9.866;2023-09-18T08:19:58;6.33;;;4.63;;
13933;SDS011;7039;52.168;9.866;2023-09-18T08:22:24;10.50;;;4.30;;
13933;SDS011;7039;52.168;9.866;2023-09-18T08:24:51;6.47;;;4.23;;
13933;SDS011;7039;52.168;9.866;2023-09-18T08:27:18;6.43;;;4.03;;
13933;SDS011;7039;52.168;9.866;2023-09-18T08:29:45;7.00;;;3.80;;
13933;SDS011;7039;52.168;9.866;2023-09-18T08:32:13;11.43;;;4.27;;
13933;SDS011;7039;52.168;9.866;2023-09-18T08:34:40;13.23;;;4.73;;
13933;SDS011;7039;52.168;9.866;2023-09-18T08:37:06;9.87;;;4.53;;
13933;SDS011;7039;52.168;9.866;2023-09-18T08:39:34;14.67;;;5.17;;
13933;SDS011;7039;52.168;9.866;2023-09-18T08:42:03;6.68;;;3.80;;
13933;SDS011;7039;52.168;9.866;2023-09-18T08:44:31;8.70;;;4.00;;
13933;SDS011;7039;52.168;9.866;2023-09-18T08:46:57;11.07;;;4.00;;
13933;SDS011;7039;52.168;9.866;2023-09-18T08:49:25;9.63;;;4.07;;
13933;SDS011;7039;52.168;9.866;2023-09-18T08:51:54;9.87;;;3.70;;
13933;SDS011;7039;52.168;9.866;2023-09-18T08:54:22;13.57;;;3.83;;
13933;SDS011;7039;52.168;9.866;2023-09-18T08:56:50;8.27;;;3.03;;
13933;SDS011;7039;52.168;9.866;2023-09-18T08:59:16;13.07;;;4.72;;
13933;SDS011;7039;52.168;9.866;2023-09-18T09:01:44;7.60;;;4.22;;
13933;SDS011;7039;52.168;9.866;2023-09-18T09:04:10;14.45;;;4.50;;
13933;SDS011;7039;52.168;9.866;2023-09-18T09:06:38;8.80;;;3.38;;
13933;SDS011;7039;52.168;9.866;2023-09-18T09:09:05;14.77;;;3.63;;
13933;SDS011;7039;52.168;9.866;2023-09-18T09:11:32;9.85;;;3.70;;
13933;SDS011;7039;52.168;9.866;2023-09-18T09:14:09;8.95;;;3.58;;
13933;SDS011;7039;52.168;9.866;2023-09-18T09:16:41;7.05;;;4.13;;
13933;SDS011;7039;52.168;9.866;2023-09-18T09:19:12;7.97;;;3.47;;
13933;SDS011;7039;52.168;9.866;2023-09-18T09:21:40;15.50;;;3.60;;
13933;SDS011;7039;52.168;9.866;2023-09-18T09:24:08;6.47;;;3.78;;
13933;SDS011;7039;52.168;9.866;2023-09-18T09:26:39;9.85;;;3.80;;
13933;SDS011;7039;52.168;9.866;2023-09-18T09:29:16;11.98;;;4.03;;
13933;SDS011;7039;52.168;9.866;2023-09-18T09:31:44;11.10;;;3.95;;
13933;SDS011;7039;52.168;9.866;2023-09-18T09:34:11;6.25;;;3.35;;
13933;SDS011;7039;52.168;9.866;2023-09-18T09:36:52;6.53;;;2.80;;
13933;SDS011;7039;52.168;9.866;2023-09-18T09:39:19;5.55;;;3.00;;
13933;SDS011;7039;52.168;9.866;2023-09-18T09:41:46;12.70;;;3.22;;
13933;SDS011;7039;52.168;9.866;2023-09-18T09:44:14;9.98;;;2.85;;
13933;SDS011;7039;52.168;9.866;2023-09-18T09:46:44;8.32;;;3.70;;
13933;SDS011;7039;52.168;9.866;2023-09-18T09:49:11;10.05;;;3.15;;
13933;SDS011;7039;52.168;9.866;2023-09-18T09:51:40;7.20;;;2.85;;
13933;SDS011;7039;52.168;9.866;2023-09-18T09:54:09;6.37;;;3.07;;
13933;SDS011;7039;52.168;9.866;2023-09-18T09:56:41;11.90;;;3.33;;
13933;SDS011;7039;52.168;9.866;2023-09-18T09:59:08;7.90;;;2.83;;
13933;SDS011;7039;52.168;9.866;2023-09-18T10:01:37;11.03;;;2.97;;
13933;SDS011;7039;52.168;9.866;2023-09-18T10:04:06;8.63;;;2.78;;
13933;SDS011;7039;52.168;9.866;2023-09-18T10:06:36;7.35;;;3.17;;
13933;SDS011;7039;52.168;9.866;2023-09-18T10:09:03;7.10;;;2.35;;
13933;SDS011;7039;52.168;9.866;2023-09-18T10:11:34;9.07;;;3.35;;
13933;SDS011;7039;52.168;9.866;2023-09-18T10:14:08;6.07;;;3.10;;
13933;SDS011;7039;52.168;9.866;2023-09-18T10:16:39;16.00;;;3.00;;
13933;SDS011;7039;52.168;9.866;2023-09-18T10:19:11;9.00;;;2.97;;
13933;SDS011;7039;52.168;9.866;2023-09-18T10:21:46;8.33;;;2.90;;
13933;SDS011;7039;52.168;9.866;2023-09-18T10:24:19;5.25;;;2.67;;
13933;SDS011;7039;52.168;9.866;2023-09-18T10:26:57;7.07;;;2.93;;
13933;SDS011;7039;52.168;9.866;2023-09-18T10:29:24;7.80;;;2.72;;
13933;SDS011;7039;52.168;9.866;2023-09-18T10:31:52;8.07;;;3.10;;
13933;SDS011;7039;52.168;9.866;2023-09-18T10:34:19;8.20;;;2.55;;
13933;SDS011;7039;52.168;9.866;2023-09-18T10:36:48;9.40;;;3.15;;
13933;SDS011;7039;52.168;9.866;2023-09-18T10:39:15;7.22;;;2.90;;
13933;SDS011;7039;52.168;9.866;2023-09-18T10:41:44;9.15;;;2.50;;
13933;SDS011;7039;52.168;9.866;2023-09-18T10:44:15;10.13;;;2.83;;
13933;SDS011;7039;52.168;9.866;2023-09-18T10:46:42;8.50;;;2.83;;
13933;SDS011;7039;52.168;9.866;2023-09-18T10:49:09;9.37;;;2.60;;
13933;SDS011;7039;52.168;9.866;2023-09-18T10:51:36;8.60;;;2.92;;
13933;SDS011;7039;52.168;9.866;2023-09-18T10:54:07;15.27;;;3.20;;
13933;SDS011;7039;52.168;9.866;2023-09-18T10:56:34;10.33;;;2.87;;
13933;SDS011;7039;52.168;9.866;2023-09-18T10:59:01;7.70;;;2.97;;
13933;SDS011;7039;52.168;9.866;2023-09-18T11:01:30;7.78;;;2.58;;
13933;SDS011;7039;52.168;9.866;2023-09-18T11:03:58;7.72;;;2.70;;
13933;SDS011;7039;52.168;9.866;2023-09-18T11:06:26;6.70;;;2.65;;
13933;SDS011;7039;52.168;9.866;2023-09-18T11:08:59;7.95;;;2.63;;
13933;SDS011;7039;52.168;9.866;2023-09-18T11:11:29;10.55;;;2.70;;
13933;SDS011;7039;52.168;9.866;2023-09-18T11:13:58;7.30;;;2.70;;
13933;SDS011;7039;52.168;9.866;2023-09-18T11:16:36;6.28;;;2.33;;
13933;SDS011;7039;52.168;9.866;2023-09-18T11:19:05;8.32;;;2.83;;
13933;SDS011;7039;52.168;9.866;2023-09-18T11:21:35;11.38;;;2.60;;
13933;SDS011;7039;52.168;9.866;2023-09-18T11:24:03;10.05;;;3.10;;
13933;SDS011;7039;52.168;9.866;2023-09-18T11:26:32;5.70;;;2.45;;
13933;SDS011;7039;52.168;9.866;2023-09-18T11:29:00;11.25;;;2.78;;
13933;SDS011;7039;52.168;9.866;2023-09-18T11:31:44;5.10;;;2.50;;
13933;SDS011;7039;52.168;9.866;2023-09-18T11:34:12;6.00;;;2.25;;
13933;SDS011;7039;52.168;9.866;2023-09-18T11:36:40;8.95;;;2.67;;
13933;SDS011;7039;52.168;9.866;2023-09-18T11:39:06;5.40;;;2.38;;
13933;SDS011;7039;52.168;9.866;2023-09-18T11:41:34;9.43;;;2.63;;
13933;SDS011;7039;52.168;9.866;2023-09-18T11:47:02;4.70;;;2.70;;
13933;SDS011;7039;52.168;9.866;2023-09-18T11:49:33;4.97;;;2.08;;
13933;SDS011;7039;52.168;9.866;2023-09-18T11:52:01;6.78;;;2.67;;
13933;SDS011;7039;52.168;9.866;2023-09-18T11:54:28;5.15;;;2.40;;
13933;SDS011;7039;52.168;9.866;2023-09-18T11:56:56;4.85;;;2.60;;
13933;SDS011;7039;52.168;9.866;2023-09-18T11:59:33;7.00;;;2.60;;
13933;SDS011;7039;52.168;9.866;2023-09-18T12:02:03;7.72;;;2.65;;
13933;SDS011;7039;52.168;9.866;2023-09-18T12:04:31;7.55;;;2.63;;
13933;SDS011;7039;52.168;9.866;2023-09-18T12:06:59;4.18;;;2.53;;
13933;SDS011;7039;52.168;9.866;2023-09-18T12:09:28;9.10;;;2.70;;
13933;SDS011;7039;52.168;9.866;2023-09-18T12:11:54;5.80;;;2.83;;
13933;SDS011;7039;52.168;9.866;2023-09-18T12:14:22;6.18;;;2.38;;
13933;SDS011;7039;52.168;9.866;2023-09-18T12:16:48;5.38;;;2.17;;
13933;SDS011;7039;52.168;9.866;2023-09-18T12:19:18;5.22;;;2.13;;
13933;SDS011;7039;52.168;9.866;2023-09-18T12:21:45;8.10;;;2.47;;
13933;SDS011;7039;52.168;9.866;2023-09-18T12:24:13;6.18;;;2.42;;
13933;SDS011;7039;52.168;9.866;2023-09-18T12:26:40;3.65;;;2.60;;
13933;SDS011;7039;52.168;9.866;2023-09-18T12:29:07;6.10;;;2.30;;
13933;SDS011;7039;52.168;9.866;2023-09-18T12:31:35;8.50;;;2.65;;
13933;SDS011;7039;52.168;9.866;2023-09-18T12:34:02;2.60;;;2.00;;
13933;SDS011;7039;52.168;9.866;2023-09-18T12:36:30;8.43;;;2.28;;
13933;SDS011;7039;52.168;9.866;2023-09-18T12:38:56;9.63;;;2.83;;
13933;SDS011;7039;52.168;9.866;2023-09-18T12:41:24;3.33;;;2.30;;
13933;SDS011;7039;52.168;9.866;2023-09-18T12:43:50;4.75;;;2.28;;
13933;SDS011;7039;52.168;9.866;2023-09-18T12:46:19;6.80;;;2.30;;
13933;SDS011;7039;52.168;9.866;2023-09-18T12:48:46;5.85;;;2.45;;
13933;SDS011;7039;52.168;9.866;2023-09-18T12:51:13;7.70;;;2.67;;
13933;SDS011;7039;52.168;9.866;2023-09-18T12:53:42;8.32;;;2.42;;
13933;SDS011;7039;52.168;9.866;2023-09-18T12:56:09;6.60;;;2.88;;
13933;SDS011;7039;52.168;9.866;2023-09-18T12:58:37;7.13;;;2.30;;
13933;SDS011;7039;52.168;9.866;2023-09-18T13:01:05;6.82;;;1.90;;
13933;SDS011;7039;52.168;9.866;2023-09-18T13:03:34;8.38;;;3.17;;
13933;SDS011;7039;52.168;9.866;2023-09-18T13:06:08;6.43;;;2.15;;
13933;SDS011;7039;52.168;9.866;2023-09-18T13:08:35;10.32;;;2.80;;
13933;SDS011;7039;52.168;9.866;2023-09-18T13:11:03;4.00;;;2.22;;
13933;SDS011;7039;52.168;9.866;2023-09-18T13:13:31;5.03;;;2.00;;
13933;SDS011;7039;52.168;9.866;2023-09-18T13:15:58;7.90;;;2.33;;
13933;SDS011;7039;52.168;9.866;2023-09-18T13:18:26;7.68;;;2.45;;
13933;SDS011;7039;52.168;9.866;2023-09-18T13:20:53;4.30;;;2.10;;
13933;SDS011;7039;52.168;9.866;2023-09-18T13:23:20;5.20;;;2.07;;
13933;SDS011;7039;52.168;9.866;2023-09-18T13:25:46;3.50;;;2.20;;
13933;SDS011;7039;52.168;9.866;2023-09-18T13:28:14;7.70;;;2.40;;
13933;SDS011;7039;52.168;9.866;2023-09-18T13:30:42;5.22;;;2.50;;
13933;SDS011;7039;52.168;9.866;2023-09-18T13:33:10;6.90;;;2.33;;
13933;SDS011;7039;52.168;9.866;2023-09-18T13:35:38;5.00;;;2.40;;
13933;SDS011;7039;52.168;9.866;2023-09-18T13:38:06;3.83;;;2.20;;
13933;SDS011;7039;52.168;9.866;2023-09-18T13:40:34;5.18;;;2.47;;
13933;SDS011;7039;52.168;9.866;2023-09-18T13:43:01;8.07;;;2.38;;
13933;SDS011;7039;52.168;9.866;2023-09-18T13:45:30;6.40;;;2.70;;
13933;SDS011;7039;52.168;9.866;2023-09-18T13:47:56;7.10;;;2.10;;
13933;SDS011;7039;52.168;9.866;2023-09-18T13:50:23;4.10;;;2.30;;
13933;SDS011;7039;52.168;9.866;2023-09-18T13:52:49;8.77;;;2.47;;
13933;SDS011;7039;52.168;9.866;2023-09-18T13:55:16;5.57;;;2.20;;
13933;SDS011;7039;52.168;9.866;2023-09-18T13:57:43;3.67;;;2.00;;
13933;SDS011;7039;52.168;9.866;2023-09-18T14:00:10;8.35;;;2.28;;
13933;SDS011;7039;52.168;9.866;2023-09-18T14:02:40;4.97;;;1.90;;
13933;SDS011;7039;52.168;9.866;2023-09-18T14:05:07;2.95;;;1.95;;
13933;SDS011;7039;52.168;9.866;2023-09-18T14:07:35;7.57;;;2.10;;
13933;SDS011;7039;52.168;9.866;2023-09-18T14:10:03;4.38;;;2.55;;
13933;SDS011;7039;52.168;9.866;2023-09-18T14:12:32;5.03;;;1.90;;
13933;SDS011;7039;52.168;9.866;2023-09-18T14:14:58;3.83;;;2.05;;
13933;SDS011;7039;52.168;9.866;2023-09-18T14:17:25;3.05;;;1.85;;
13933;SDS011;7039;52.168;9.866;2023-09-18T14:19:53;8.20;;;2.00;;
13933;SDS011;7039;52.168;9.866;2023-09-18T14:22:20;5.65;;;2.03;;
13933;SDS011;7039;52.168;9.866;2023-09-18T14:24:46;6.95;;;2.08;;
13933;SDS011;7039;52.168;9.866;2023-09-18T14:27:13;4.65;;;1.85;;
13933;SDS011;7039;52.168;9.866;2023-09-18T14:29:39;5.38;;;1.70;;
13933;SDS011;7039;52.168;9.866;2023-09-18T14:32:06;4.95;;;2.25;;
13933;SDS011;7039;52.168;9.866;2023-09-18T14:34:33;4.82;;;2.03;;
13933;SDS011;7039;52.168;9.866;2023-09-18T14:37:01;5.15;;;1.88;;
13933;SDS011;7039;52.168;9.866;2023-09-18T14:39:29;5.85;;;2.20;;
13933;SDS011;7039;52.168;9.866;2023-09-18T14:41:56;3.73;;;1.80;;
13933;SDS011;7039;52.168;9.866;2023-09-18T14:44:23;3.28;;;1.90;;
13933;SDS011;7039;52.168;9.866;2023-09-18T14:46:50;4.80;;;2.00;;
13933;SDS011;7039;52.168;9.866;2023-09-18T14:49:16;3.33;;;2.28;;
13933;SDS011;7039;52.168;9.866;2023-09-18T14:51:42;4.95;;;1.98;;
13933;SDS011;7039;52.168;9.866;2023-09-18T14:54:10;6.97;;;1.90;;
13933;SDS011;7039;52.168;9.866;2023-09-18T14:56:37;4.03;;;2.13;;
13933;SDS011;7039;52.168;9.866;2023-09-18T14:59:05;5.53;;;2.80;;
13933;SDS011;7039;52.168;9.866;2023-09-18T15:01:33;3.13;;;1.90;;
13933;SDS011;7039;52.168;9.866;2023-09-18T15:03:59;5.10;;;1.83;;
13933;SDS011;7039;52.168;9.866;2023-09-18T15:06:25;4.13;;;1.73;;